createdAt,value
2022-09-21T00:00:52.784Z,6.90
2022-09-21T00:03:20.819Z,6.90
2022-09-21T00:05:48.544Z,6.80
2022-09-21T00:08:16.349Z,6.80
2022-09-21T00:10:50.109Z,6.70
2022-09-21T00:13:19.701Z,6.60
2022-09-21T00:15:48.782Z,6.60
2022-09-21T00:18:17.330Z,6.60
2022-09-21T00:20:45.058Z,6.50
2022-09-21T00:23:12.814Z,6.50
2022-09-21T00:25:41.027Z,6.60
2022-09-21T00:28:08.768Z,6.50
2022-09-21T00:30:36.637Z,6.60
2022-09-21T00:33:06.223Z,6.30
2022-09-21T00:35:34.481Z,6.20
2022-09-21T00:38:03.257Z,6.20
2022-09-21T00:40:32.735Z,6.20
2022-09-21T00:43:14.819Z,6.20
2022-09-21T00:45:43.514Z,6.40
2022-09-21T00:48:12.752Z,6.40
2022-09-21T00:50:47.509Z,6.20
2022-09-21T00:53:15.957Z,6.10
2022-09-21T00:55:48.197Z,6.00
2022-09-21T00:58:19.997Z,6.10
2022-09-21T01:00:47.877Z,6.10
2022-09-21T01:03:16.924Z,6.00
2022-09-21T01:05:44.671Z,5.90
2022-09-21T01:08:14.227Z,5.90
2022-09-21T01:10:56.503Z,6.00
2022-09-21T01:13:35.647Z,6.10
2022-09-21T01:16:12.342Z,6.10
2022-09-21T01:18:47.700Z,6.10
2022-09-21T01:21:20.219Z,6.20
2022-09-21T01:24:14.234Z,6.10
2022-09-21T01:27:00.401Z,6.00
2022-09-21T01:29:33.899Z,6.00
2022-09-21T01:32:07.528Z,6.10
2022-09-21T01:34:39.403Z,6.10
2022-09-21T01:37:13.839Z,6.20
2022-09-21T01:39:43.327Z,6.10
2022-09-21T01:42:13.423Z,6.10
2022-09-21T01:44:44.951Z,6.10
2022-09-21T01:47:14.303Z,6.20
2022-09-21T01:49:46.245Z,6.10
2022-09-21T01:52:19.467Z,6.20
2022-09-21T01:54:50.063Z,6.10
2022-09-21T01:57:27.072Z,6.10
2022-09-21T01:59:58.737Z,6.00
2022-09-21T02:02:31.984Z,5.90
2022-09-21T02:05:01.148Z,6.00
2022-09-21T02:07:29.083Z,5.90
2022-09-21T02:09:57.621Z,5.70
2022-09-21T02:12:25.436Z,5.60
2022-09-21T02:14:56.407Z,5.40
2022-09-21T02:17:34.277Z,5.40
2022-09-21T02:20:12.302Z,5.50
2022-09-21T02:22:46.603Z,5.40
2022-09-21T02:25:19.143Z,5.40
2022-09-21T02:27:52.244Z,5.50
2022-09-21T02:30:23.374Z,5.50
2022-09-21T02:33:00.316Z,5.50
2022-09-21T02:35:37.093Z,5.50
2022-09-21T02:38:12.177Z,5.60
2022-09-21T02:40:44.802Z,5.50
2022-09-21T02:43:20.696Z,5.50
2022-09-21T02:45:54.180Z,5.50
2022-09-21T02:48:29.424Z,5.50
2022-09-21T02:51:03.387Z,5.40
2022-09-21T02:53:36.275Z,5.30
2022-09-21T02:56:07.230Z,5.40
2022-09-21T02:58:39.097Z,5.20
2022-09-21T03:01:11.706Z,5.10
2022-09-21T03:03:39.501Z,5.00
2022-09-21T03:06:07.782Z,5.00
2022-09-21T03:08:35.523Z,5.00
2022-09-21T03:11:03.269Z,4.90
2022-09-21T03:13:31.182Z,5.00
2022-09-21T03:16:03.467Z,4.90
2022-09-21T03:18:33.188Z,5.00
2022-09-21T03:21:02.232Z,5.00
2022-09-21T03:23:30.449Z,5.00
2022-09-21T03:25:58.195Z,5.10
2022-09-21T03:28:26.029Z,5.10
2022-09-21T03:30:53.900Z,5.20
2022-09-21T03:33:21.976Z,5.30
2022-09-21T03:35:52.132Z,5.20
2022-09-21T03:38:21.103Z,5.20
2022-09-21T03:40:49.922Z,5.20
2022-09-21T03:43:18.080Z,5.20
2022-09-21T03:45:46.095Z,5.20
2022-09-21T03:48:14.689Z,5.20
2022-09-21T03:50:42.629Z,5.20
2022-09-21T03:53:11.912Z,5.10
2022-09-21T03:55:39.701Z,5.10
2022-09-21T03:58:07.981Z,5.00
2022-09-21T04:00:35.875Z,4.90
2022-09-21T04:03:03.772Z,4.90
2022-09-21T04:05:31.535Z,4.90
2022-09-21T04:08:01.959Z,4.90
2022-09-21T04:10:33.643Z,5.00
2022-09-21T04:13:03.423Z,5.00
2022-09-21T04:15:31.709Z,4.90
2022-09-21T04:18:00.097Z,4.90
2022-09-21T04:20:28.003Z,4.90
2022-09-21T04:22:55.758Z,4.90
2022-09-21T04:25:23.506Z,5.00
2022-09-21T04:27:52.627Z,5.00
2022-09-21T04:30:20.477Z,4.90
2022-09-21T04:32:48.289Z,4.80
2022-09-21T04:35:16.063Z,4.90
2022-09-21T04:37:44.072Z,4.90
2022-09-21T04:40:12.009Z,4.90
2022-09-21T04:42:40.063Z,4.90
2022-09-21T04:45:10.527Z,4.90
2022-09-21T04:47:38.252Z,4.90
2022-09-21T04:50:07.035Z,5.00
2022-09-21T04:52:34.817Z,5.00
2022-09-21T04:55:02.662Z,4.80
2022-09-21T04:57:31.030Z,4.70
2022-09-21T04:59:58.764Z,4.70
2022-09-21T05:02:27.889Z,4.60
2022-09-21T05:04:55.678Z,4.60
2022-09-21T05:07:23.445Z,4.60
2022-09-21T05:10:06.571Z,4.60
2022-09-21T05:12:39.722Z,4.60
2022-09-21T05:15:09.854Z,4.70
2022-09-21T05:17:38.993Z,4.60
2022-09-21T05:20:07.719Z,4.60
2022-09-21T05:22:35.554Z,4.60
2022-09-21T05:25:03.339Z,4.70
2022-09-21T05:27:31.096Z,4.70
2022-09-21T05:29:59.359Z,4.70
2022-09-21T05:32:33.759Z,4.60
2022-09-21T05:35:11.903Z,4.60
2022-09-21T05:37:46.683Z,4.60
2022-09-21T05:40:15.798Z,4.60
2022-09-21T05:42:44.541Z,4.60
2022-09-21T05:45:16.189Z,4.60
2022-09-21T05:48:07.840Z,4.60
2022-09-21T05:50:43.166Z,4.60
2022-09-21T05:53:23.795Z,4.70
2022-09-21T05:55:57.420Z,4.70
2022-09-21T05:58:37.616Z,4.70
2022-09-21T06:01:21.371Z,4.80
2022-09-21T06:03:50.246Z,4.90
2022-09-21T06:06:20.793Z,4.90
2022-09-21T06:08:48.789Z,4.90
2022-09-21T06:11:16.686Z,5.00
2022-09-21T06:13:44.463Z,5.10
2022-09-21T06:16:12.469Z,5.20
2022-09-21T06:18:41.134Z,5.20
2022-09-21T06:21:09.780Z,5.30
2022-09-21T06:23:38.998Z,5.30
2022-09-21T06:26:06.808Z,5.30
2022-09-21T06:28:34.578Z,5.30
2022-09-21T06:31:02.473Z,5.10
2022-09-21T06:33:30.277Z,5.00
2022-09-21T06:35:59.481Z,5.10
2022-09-21T06:38:29.072Z,5.10
2022-09-21T06:41:02.946Z,5.10
2022-09-21T06:43:31.055Z,5.10
2022-09-21T06:46:00.346Z,5.20
2022-09-21T06:48:29.251Z,5.20
2022-09-21T06:50:59.443Z,5.20
2022-09-21T06:53:27.764Z,5.20
2022-09-21T06:55:55.561Z,5.30
2022-09-21T06:58:24.658Z,5.40
2022-09-21T07:00:52.581Z,5.50
2022-09-21T07:03:20.342Z,5.50
2022-09-21T07:05:48.103Z,5.60
2022-09-21T07:11:03.703Z,5.70
2022-09-21T07:13:33.114Z,5.80
2022-09-21T07:16:05.135Z,5.80
2022-09-21T07:18:42.527Z,5.90
2022-09-21T07:21:12.422Z,5.90
2022-09-21T07:23:40.215Z,6.10
2022-09-21T07:26:10.079Z,6.20
2022-09-21T07:28:39.530Z,6.30
2022-09-21T07:31:08.708Z,6.40
2022-09-21T07:33:36.643Z,6.50
2022-09-21T07:36:10.376Z,6.50
2022-09-21T07:38:39.476Z,6.60
2022-09-21T07:41:07.700Z,6.60
2022-09-21T07:43:35.571Z,6.70
2022-09-21T07:46:04.804Z,6.80
2022-09-21T07:48:32.661Z,6.80
2022-09-21T07:51:06.059Z,6.80
2022-09-21T07:53:34.103Z,7.00
2022-09-21T07:56:03.070Z,7.00
2022-09-21T07:58:48.494Z,7.20
2022-09-21T08:01:17.809Z,7.30
2022-09-21T08:03:45.640Z,7.50
2022-09-21T08:06:14.130Z,7.60
2022-09-21T08:08:42.851Z,7.70
2022-09-21T08:11:11.982Z,7.80
2022-09-21T08:13:39.881Z,7.90
2022-09-21T08:16:08.193Z,7.90
2022-09-21T08:18:39.947Z,8.00
2022-09-21T08:21:12.141Z,8.00
2022-09-21T08:23:42.595Z,8.10
2022-09-21T08:26:16.415Z,8.20
2022-09-21T08:28:44.439Z,8.30
2022-09-21T08:31:12.240Z,8.40
2022-09-21T08:33:41.381Z,8.50
2022-09-21T08:36:10.032Z,8.60
2022-09-21T08:38:39.261Z,8.70
2022-09-21T08:41:16.449Z,8.80
2022-09-21T08:43:45.745Z,8.90
2022-09-21T08:46:17.893Z,9.00
2022-09-21T08:48:51.391Z,9.10
2022-09-21T08:51:25.316Z,9.20
2022-09-21T08:53:57.490Z,9.30
2022-09-21T08:56:36.989Z,9.50
2022-09-21T08:59:16.653Z,9.60
2022-09-21T09:01:58.328Z,9.70
2022-09-21T09:04:49.108Z,9.80
2022-09-21T09:07:37.005Z,10.00
2022-09-21T09:10:20.887Z,10.10
2022-09-21T09:13:00.629Z,10.30
2022-09-21T09:15:43.892Z,10.40
2022-09-21T09:18:19.280Z,10.60
2022-09-21T09:20:53.782Z,10.70
2022-09-21T09:23:25.322Z,10.80
2022-09-21T09:25:57.728Z,10.90
2022-09-21T09:28:31.559Z,10.90
2022-09-21T09:31:03.377Z,10.90
2022-09-21T09:33:53.917Z,11.00
2022-09-21T09:36:46.465Z,11.10
2022-09-21T09:39:14.619Z,11.20
2022-09-21T09:41:59.085Z,11.30
2022-09-21T09:44:43.408Z,11.40
2022-09-21T09:47:28.808Z,11.60
2022-09-21T09:50:05.983Z,11.60
2022-09-21T09:52:35.854Z,11.70
2022-09-21T09:55:16.548Z,11.80
2022-09-21T09:57:45.097Z,11.90
2022-09-21T10:00:16.235Z,12.00
2022-09-21T10:02:49.361Z,12.20
2022-09-21T10:05:23.419Z,12.30
2022-09-21T10:07:53.518Z,12.40
2022-09-21T10:10:36.309Z,12.50
2022-09-21T10:13:11.578Z,12.60
2022-09-21T10:15:44.831Z,12.60
2022-09-21T10:18:20.932Z,12.70
2022-09-21T10:21:03.739Z,12.80
2022-09-21T10:23:34.157Z,12.90
2022-09-21T10:26:04.757Z,13.00
2022-09-21T10:28:33.343Z,13.00
2022-09-21T10:31:17.322Z,13.10
2022-09-21T10:33:50.487Z,13.30
2022-09-21T10:36:30.937Z,13.40
2022-09-21T10:39:13.545Z,13.50
2022-09-21T10:41:41.282Z,13.70
2022-09-21T10:44:17.826Z,13.90
2022-09-21T10:46:46.539Z,14.00
2022-09-21T10:49:21.406Z,14.10
2022-09-21T10:51:51.982Z,14.20
2022-09-21T10:54:25.126Z,14.30
2022-09-21T10:56:55.323Z,14.60
2022-09-21T10:59:26.683Z,14.70
2022-09-21T11:01:56.976Z,14.80
2022-09-21T11:04:42.595Z,15.00
2022-09-21T11:07:17.745Z,15.00
2022-09-21T11:09:55.251Z,15.20
2022-09-21T11:12:44.486Z,15.20
2022-09-21T11:15:30.241Z,14.80
2022-09-21T11:18:05.306Z,14.60
2022-09-21T11:20:41.601Z,14.60
2022-09-21T11:23:23.087Z,14.60
2022-09-21T11:26:01.238Z,14.70
2022-09-21T11:28:34.962Z,14.70
2022-09-21T11:31:19.717Z,14.60
2022-09-21T11:34:02.605Z,14.60
2022-09-21T11:36:41.236Z,14.50
2022-09-21T11:39:20.568Z,14.50
2022-09-21T11:42:02.910Z,14.40
2022-09-21T11:44:44.006Z,14.30
2022-09-21T11:47:23.715Z,14.30
2022-09-21T11:50:29.356Z,14.20
2022-09-21T11:53:05.768Z,14.20
2022-09-21T11:55:58.515Z,14.20
2022-09-21T11:58:34.316Z,14.30
2022-09-21T12:01:13.044Z,14.30
2022-09-21T12:04:07.421Z,14.30
2022-09-21T12:06:46.124Z,14.40
2022-09-21T12:09:36.720Z,14.40
2022-09-21T12:12:12.076Z,14.40
2022-09-21T12:14:50.252Z,14.50
2022-09-21T12:17:25.079Z,14.50
2022-09-21T12:20:03.772Z,14.50
2022-09-21T12:22:36.176Z,14.60
2022-09-21T12:25:13.179Z,14.60
2022-09-21T12:27:43.996Z,14.70
2022-09-21T12:30:16.925Z,14.70
2022-09-21T12:32:53.509Z,14.70
2022-09-21T12:35:27.416Z,14.70
2022-09-21T12:38:00.416Z,14.80
2022-09-21T12:40:34.996Z,14.70
2022-09-21T12:43:12.624Z,14.80
2022-09-21T12:45:45.110Z,14.80
2022-09-21T12:48:24.702Z,14.80
2022-09-21T12:50:57.068Z,14.90
2022-09-21T12:53:28.241Z,14.90
2022-09-21T12:56:05.433Z,14.80
2022-09-21T12:58:50.621Z,14.80
2022-09-21T13:01:28.267Z,14.90
2022-09-21T13:04:11.064Z,14.90
2022-09-21T13:07:22.077Z,15.00
2022-09-21T13:09:51.582Z,15.00
2022-09-21T13:12:24.202Z,15.10
2022-09-21T13:14:55.580Z,15.10
2022-09-21T13:17:29.678Z,15.10
2022-09-21T13:20:01.721Z,15.20
2022-09-21T13:22:33.638Z,15.50
2022-09-21T13:25:06.597Z,15.60
2022-09-21T13:28:03.757Z,15.70
2022-09-21T13:30:38.650Z,15.80
2022-09-21T13:33:32.199Z,15.70
2022-09-21T13:36:08.400Z,15.80
2022-09-21T13:38:59.258Z,15.70
2022-09-21T13:41:51.741Z,15.70
2022-09-21T13:44:22.955Z,15.60
2022-09-21T13:46:59.422Z,15.60
2022-09-21T13:49:40.417Z,15.50
2022-09-21T13:52:22.222Z,15.30
2022-09-21T13:54:53.378Z,15.30
2022-09-21T13:57:28.336Z,15.30
2022-09-21T14:00:31.532Z,15.30
2022-09-21T14:03:04.069Z,15.30
2022-09-21T14:05:39.440Z,15.20
2022-09-21T14:08:24.556Z,15.20
2022-09-21T14:10:56.175Z,15.10
2022-09-21T14:13:34.769Z,15.10
2022-09-21T14:16:41.696Z,15.10
2022-09-21T14:20:03.764Z,15.20
2022-09-21T14:22:41.418Z,15.20
2022-09-21T14:25:52.226Z,15.20
2022-09-21T14:28:29.499Z,15.30
2022-09-21T14:31:02.736Z,15.30
2022-09-21T14:33:36.174Z,15.50
2022-09-21T14:36:09.754Z,15.70
2022-09-21T14:38:46.014Z,15.90
2022-09-21T14:41:18.120Z,16.10
2022-09-21T14:43:52.181Z,16.20
2022-09-21T14:46:37.053Z,16.30
2022-09-21T14:49:23.012Z,16.40
2022-09-21T14:52:12.877Z,16.40
2022-09-21T14:54:52.564Z,16.40
2022-09-21T14:57:36.427Z,16.40
2022-09-21T15:00:20.983Z,16.40
2022-09-21T15:02:56.353Z,16.30
2022-09-21T15:05:31.859Z,16.10
2022-09-21T15:08:44.897Z,16.00
2022-09-21T15:11:21.782Z,15.90
2022-09-21T15:14:08.645Z,15.80
2022-09-21T15:16:40.837Z,15.70
2022-09-21T15:19:16.030Z,15.60
2022-09-21T15:21:45.760Z,15.50
2022-09-21T15:24:23.152Z,15.40
2022-09-21T15:26:54.410Z,15.40
2022-09-21T15:29:26.583Z,15.30
2022-09-21T15:31:56.356Z,15.30
2022-09-21T15:34:25.294Z,15.20
2022-09-21T15:36:53.553Z,15.20
2022-09-21T15:39:23.832Z,15.20
2022-09-21T15:42:09.130Z,15.10
2022-09-21T15:44:39.377Z,15.10
2022-09-21T15:47:09.895Z,15.00
2022-09-21T15:49:38.410Z,15.00
2022-09-21T15:52:12.926Z,15.00
2022-09-21T15:54:49.064Z,15.00
2022-09-21T15:57:34.752Z,15.00
2022-09-21T16:00:21.388Z,15.00
2022-09-21T16:03:07.395Z,14.90
2022-09-21T16:05:44.935Z,14.90
2022-09-21T16:08:30.163Z,14.90
2022-09-21T16:11:17.599Z,14.80
2022-09-21T16:14:15.839Z,14.80
2022-09-21T16:17:07.998Z,14.70
2022-09-21T16:19:43.166Z,14.60
2022-09-21T16:22:13.176Z,14.60
2022-09-21T16:24:46.651Z,14.60
2022-09-21T16:27:18.365Z,14.60
2022-09-21T16:29:50.114Z,14.60
2022-09-21T16:32:28.802Z,14.60
2022-09-21T16:35:25.319Z,14.60
2022-09-21T16:37:54.516Z,14.50
2022-09-21T16:40:22.481Z,14.40
2022-09-21T16:42:50.416Z,14.40
2022-09-21T16:45:24.381Z,14.40
2022-09-21T16:47:54.063Z,14.30
2022-09-21T16:50:21.897Z,14.30
2022-09-21T16:52:51.614Z,14.30
2022-09-21T16:55:20.009Z,14.20
2022-09-21T16:57:48.855Z,14.10
2022-09-21T17:00:20.657Z,14.00
2022-09-21T17:02:48.808Z,14.00
2022-09-21T17:05:18.082Z,13.90
2022-09-21T17:07:51.965Z,13.90
2022-09-21T17:10:21.200Z,13.90
2022-09-21T17:12:50.935Z,13.80
2022-09-21T17:15:20.426Z,13.70
2022-09-21T17:17:48.173Z,13.70
2022-09-21T17:20:20.064Z,13.70
2022-09-21T17:22:48.148Z,13.50
2022-09-21T17:25:16.131Z,13.60
2022-09-21T17:27:45.886Z,13.40
2022-09-21T17:30:17.292Z,13.30
2022-09-21T17:32:47.657Z,13.20
2022-09-21T17:35:18.519Z,12.80
2022-09-21T17:37:46.424Z,12.60
2022-09-21T17:40:16.250Z,12.60
2022-09-21T17:42:46.478Z,12.40
2022-09-21T17:45:25.195Z,12.20
2022-09-21T17:47:55.165Z,12.00
2022-09-21T17:50:31.718Z,11.90
2022-09-21T17:53:17.671Z,11.80
2022-09-21T17:55:53.816Z,11.80
2022-09-21T17:58:42.818Z,11.80
2022-09-21T18:01:27.343Z,11.70
2022-09-21T18:03:57.521Z,11.60
2022-09-21T18:06:25.938Z,11.60
2022-09-21T18:08:55.087Z,11.60
2022-09-21T18:11:44.967Z,11.60
2022-09-21T18:14:24.442Z,11.60
2022-09-21T18:17:06.411Z,11.70
2022-09-21T18:19:47.756Z,11.60
2022-09-21T18:22:23.841Z,11.50
2022-09-21T18:24:53.150Z,11.30
2022-09-21T18:27:23.066Z,11.30
2022-09-21T18:29:51.262Z,11.10
2022-09-21T18:32:51.629Z,11.10
2022-09-21T18:35:42.787Z,10.90
2022-09-21T18:38:21.719Z,10.70
2022-09-21T18:41:01.639Z,10.70
2022-09-21T18:43:53.532Z,10.70
2022-09-21T18:46:29.645Z,10.60
2022-09-21T18:49:02.947Z,10.50
2022-09-21T18:51:37.481Z,10.50
2022-09-21T18:54:05.876Z,10.60
2022-09-21T18:56:36.966Z,10.40
2022-09-21T18:59:07.044Z,10.40
2022-09-21T19:01:35.443Z,10.60
2022-09-21T19:04:04.163Z,10.60
2022-09-21T19:06:47.211Z,10.50
2022-09-21T19:09:34.573Z,10.50
2022-09-21T19:12:11.763Z,10.50
2022-09-21T19:14:49.253Z,10.40
2022-09-21T19:17:28.602Z,10.30
2022-09-21T19:20:04.559Z,10.30
2022-09-21T19:22:41.832Z,10.20
2022-09-21T19:25:23.036Z,10.30
2022-09-21T19:27:57.633Z,10.10
2022-09-21T19:30:26.045Z,10.00
2022-09-21T19:32:58.050Z,10.10
2022-09-21T19:35:27.946Z,10.10
2022-09-21T19:38:01.422Z,10.10
2022-09-21T19:40:32.303Z,10.00
2022-09-21T19:43:14.000Z,9.80
2022-09-21T19:45:50.353Z,9.60
2022-09-21T19:48:20.602Z,9.60
2022-09-21T19:50:54.627Z,9.50
2022-09-21T19:53:42.484Z,9.40
2022-09-21T19:56:31.340Z,9.40
2022-09-21T19:59:17.223Z,9.40
2022-09-21T20:01:57.458Z,9.30
2022-09-21T20:04:32.104Z,9.40
2022-09-21T20:07:07.836Z,9.40
2022-09-21T20:09:42.402Z,9.30
2022-09-21T20:12:18.930Z,9.20
2022-09-21T20:14:53.846Z,9.30
2022-09-21T20:17:26.039Z,9.30
2022-09-21T20:20:05.283Z,9.20
2022-09-21T20:22:36.149Z,9.20
2022-09-21T20:25:13.662Z,9.10
2022-09-21T20:27:44.604Z,8.90
2022-09-21T20:30:14.339Z,8.80
2022-09-21T20:32:44.722Z,8.70
2022-09-21T20:35:16.932Z,8.70
2022-09-21T20:37:45.217Z,8.70
2022-09-21T20:40:15.375Z,8.70
2022-09-21T20:42:43.349Z,8.70
2022-09-21T20:45:13.281Z,8.60
2022-09-21T20:47:41.302Z,8.60
2022-09-21T20:50:12.734Z,8.60
2022-09-21T20:52:41.424Z,8.60
2022-09-21T20:55:10.723Z,8.60
2022-09-21T20:57:40.471Z,8.70
2022-09-21T21:00:09.981Z,8.60
2022-09-21T21:02:37.749Z,8.50
2022-09-21T21:05:07.886Z,8.40
2022-09-21T21:07:36.402Z,8.40
2022-09-21T21:10:05.238Z,8.60
2022-09-21T21:12:33.317Z,8.60
2022-09-21T21:15:02.413Z,8.50
2022-09-21T21:17:30.171Z,8.50
2022-09-21T21:19:58.154Z,8.60
2022-09-21T21:22:25.933Z,8.40
2022-09-21T21:24:53.681Z,8.30
2022-09-21T21:27:23.214Z,8.40
2022-09-21T21:29:51.815Z,8.30
2022-09-21T21:32:23.063Z,8.40
2022-09-21T21:34:51.426Z,8.40
2022-09-21T21:37:20.505Z,8.40
2022-09-21T21:39:48.368Z,8.30
2022-09-21T21:42:16.203Z,8.20
2022-09-21T21:44:43.958Z,8.10
2022-09-21T21:47:35.218Z,8.10
2022-09-21T21:50:01.126Z,8.20
2022-09-21T21:52:30.345Z,8.20
2022-09-21T21:54:58.088Z,8.20
2022-09-21T21:57:25.996Z,8.30
2022-09-21T21:59:53.753Z,8.20
2022-09-21T22:02:21.626Z,8.00
2022-09-21T22:04:49.414Z,8.00
2022-09-21T22:07:18.683Z,8.00
2022-09-21T22:09:46.451Z,7.90
2022-09-21T22:12:14.202Z,7.80
2022-09-21T22:14:42.000Z,7.80
2022-09-21T22:17:09.745Z,7.80
2022-09-21T22:19:38.354Z,7.80
2022-09-21T22:22:06.127Z,7.70
2022-09-21T22:24:35.196Z,7.70
2022-09-21T22:27:02.938Z,7.60
2022-09-21T22:29:31.051Z,7.70
2022-09-21T22:31:58.816Z,7.70
2022-09-21T22:34:26.762Z,7.60
2022-09-21T22:36:56.291Z,7.60
2022-09-21T22:39:24.227Z,7.60
2022-09-21T22:41:53.342Z,7.70
2022-09-21T22:44:21.058Z,7.60
2022-09-21T22:46:48.871Z,7.50
2022-09-21T22:49:16.703Z,7.50
2022-09-21T22:51:44.465Z,7.50
2022-09-21T22:54:12.213Z,7.60
2022-09-21T22:56:39.938Z,7.60
2022-09-21T22:59:09.074Z,7.50
2022-09-21T23:01:38.673Z,7.60
2022-09-21T23:04:08.128Z,7.50
2022-09-21T23:06:37.573Z,7.50
2022-09-21T23:09:07.518Z,7.60
2022-09-21T23:11:37.471Z,7.50
2022-09-21T23:14:06.046Z,7.50
2022-09-21T23:16:35.507Z,7.50
2022-09-21T23:19:03.370Z,7.50
2022-09-21T23:21:31.912Z,7.40
2022-09-21T23:24:00.970Z,7.50
2022-09-21T23:26:30.416Z,7.30
2022-09-21T23:28:59.627Z,7.30
2022-09-21T23:31:28.570Z,7.20
2022-09-21T23:33:59.499Z,7.10
2022-09-21T23:36:29.391Z,7.00
2022-09-21T23:38:57.621Z,7.00
2022-09-21T23:41:27.383Z,6.90
2022-09-21T23:43:55.916Z,6.90
2022-09-21T23:46:26.311Z,6.90
2022-09-21T23:48:54.512Z,6.80
2022-09-21T23:51:23.617Z,6.80
2022-09-21T23:53:51.851Z,6.70
2022-09-21T23:56:21.310Z,6.70
2022-09-21T23:58:49.511Z,6.70
